createdAt,value
2023-01-30T00:00:52.348Z,86.20
2023-01-30T00:03:55.113Z,86.14
2023-01-30T00:06:57.993Z,86.69
2023-01-30T00:10:01.159Z,85.97
2023-01-30T00:13:03.901Z,85.33
2023-01-30T00:16:07.490Z,85.13
2023-01-30T00:19:10.202Z,86.00
2023-01-30T00:22:13.230Z,87.38
2023-01-30T00:25:16.358Z,87.63
2023-01-30T00:28:19.995Z,87.01
2023-01-30T00:31:22.812Z,87.23
2023-01-30T00:34:26.485Z,87.05
2023-01-30T00:37:29.199Z,87.03
2023-01-30T00:40:33.723Z,86.88
2023-01-30T00:43:54.654Z,86.96
2023-01-30T00:47:06.164Z,86.96
2023-01-30T00:50:09.418Z,87.55
2023-01-30T00:53:13.748Z,86.78
2023-01-30T00:56:16.661Z,87.08
2023-01-30T00:59:19.713Z,87.36
2023-01-30T01:02:22.443Z,86.70
2023-01-30T01:05:26.120Z,86.61
2023-01-30T01:08:29.175Z,87.11
2023-01-30T01:11:32.224Z,87.72
2023-01-30T01:14:34.764Z,88.06
2023-01-30T01:17:38.704Z,88.47
2023-01-30T01:20:41.254Z,87.97
2023-01-30T01:23:44.556Z,87.73
2023-01-30T01:26:47.735Z,87.78
2023-01-30T01:29:50.981Z,87.56
2023-01-30T01:32:53.877Z,88.11
2023-01-30T01:35:57.063Z,87.89
2023-01-30T01:38:59.961Z,87.99
2023-01-30T01:42:02.758Z,88.96
2023-01-30T01:45:13.444Z,88.74
2023-01-30T01:48:32.968Z,88.76
2023-01-30T01:51:50.534Z,88.40
2023-01-30T01:55:00.889Z,88.66
2023-01-30T01:58:12.027Z,88.89
2023-01-30T02:01:15.635Z,88.48
2023-01-30T02:04:38.535Z,87.80
2023-01-30T02:07:55.834Z,87.54
2023-01-30T02:11:02.468Z,88.21
2023-01-30T02:14:06.818Z,88.07
2023-01-30T02:17:09.481Z,87.57
2023-01-30T02:20:48.333Z,87.71
2023-01-30T02:24:21.539Z,87.85
2023-01-30T02:27:59.008Z,87.14
2023-01-30T02:31:04.472Z,86.60
2023-01-30T02:34:14.936Z,87.03
2023-01-30T02:37:51.605Z,86.20
2023-01-30T02:41:32.158Z,85.49
2023-01-30T02:44:41.063Z,83.64
2023-01-30T02:48:01.183Z,83.88
2023-01-30T02:51:13.868Z,83.69
2023-01-30T02:54:17.153Z,83.32
2023-01-30T02:57:22.853Z,84.25
2023-01-30T03:00:38.786Z,84.00
2023-01-30T03:03:50.589Z,83.57
2023-01-30T03:07:16.959Z,82.49
2023-01-30T03:10:22.864Z,82.80
2023-01-30T03:13:49.130Z,82.49
2023-01-30T03:16:57.733Z,80.15
2023-01-30T03:20:01.076Z,79.63
2023-01-30T03:23:03.603Z,79.07
2023-01-30T03:26:13.493Z,78.76
2023-01-30T03:29:16.207Z,77.93
2023-01-30T03:32:19.640Z,79.01
2023-01-30T03:35:22.668Z,79.64
2023-01-30T03:38:25.472Z,79.92
2023-01-30T03:41:28.353Z,79.10
2023-01-30T03:44:30.971Z,80.05
2023-01-30T03:47:34.217Z,79.83
2023-01-30T03:50:37.706Z,78.97
2023-01-30T03:53:40.246Z,80.13
2023-01-30T03:56:43.337Z,79.59
2023-01-30T03:59:45.854Z,80.00
2023-01-30T04:02:51.510Z,80.12
2023-01-30T04:05:54.245Z,82.09
2023-01-30T04:08:57.242Z,83.93
2023-01-30T04:12:16.508Z,85.11
2023-01-30T04:15:27.903Z,86.07
2023-01-30T04:18:42.547Z,86.78
2023-01-30T04:21:48.972Z,88.44
2023-01-30T04:24:51.727Z,90.10
2023-01-30T04:27:54.236Z,90.62
2023-01-30T04:31:01.498Z,91.43
2023-01-30T04:34:24.497Z,91.46
2023-01-30T04:37:27.408Z,91.67
2023-01-30T04:40:30.517Z,91.86
2023-01-30T04:43:33.449Z,92.06
2023-01-30T04:46:51.059Z,91.86
2023-01-30T04:49:53.844Z,91.80
2023-01-30T04:52:57.248Z,91.37
2023-01-30T04:55:59.686Z,91.35
2023-01-30T04:59:02.830Z,91.22
2023-01-30T05:02:11.277Z,91.13
2023-01-30T05:05:14.374Z,91.02
2023-01-30T05:08:17.078Z,91.00
2023-01-30T05:11:20.920Z,91.02
2023-01-30T05:14:23.478Z,91.42
2023-01-30T05:17:26.276Z,91.26
2023-01-30T05:20:29.552Z,91.26
2023-01-30T05:23:32.808Z,91.07
2023-01-30T05:26:35.255Z,91.21
2023-01-30T05:29:38.416Z,91.10
2023-01-30T05:32:41.089Z,90.68
2023-01-30T05:35:47.989Z,89.83
2023-01-30T05:38:50.712Z,89.76
2023-01-30T05:41:53.192Z,89.68
2023-01-30T05:44:56.043Z,89.88
2023-01-30T05:48:01.519Z,89.27
2023-01-30T05:51:04.657Z,90.92
2023-01-30T05:54:07.616Z,90.55
2023-01-30T05:57:11.409Z,90.83
2023-01-30T06:05:41.094Z,91.80
2023-01-30T06:08:43.845Z,92.01
2023-01-30T06:11:46.482Z,91.98
2023-01-30T06:14:49.161Z,92.02
2023-01-30T06:17:51.592Z,92.18
2023-01-30T06:20:54.454Z,92.46
2023-01-30T06:23:56.955Z,92.60
2023-01-30T06:26:59.827Z,92.71
2023-01-30T06:30:02.491Z,92.71
2023-01-30T06:33:08.133Z,92.65
2023-01-30T06:36:10.672Z,92.43
2023-01-30T06:39:13.409Z,92.73
2023-01-30T06:42:16.655Z,92.62
2023-01-30T06:45:19.971Z,91.95
2023-01-30T06:48:22.630Z,91.83
2023-01-30T06:51:27.596Z,91.29
2023-01-30T06:54:30.206Z,89.99
2023-01-30T06:57:32.873Z,89.86
2023-01-30T07:00:40.144Z,90.42
2023-01-30T07:03:42.792Z,89.65
2023-01-30T07:06:46.913Z,89.13
2023-01-30T07:10:05.795Z,87.15
2023-01-30T07:13:10.391Z,86.00
2023-01-30T07:16:13.087Z,87.98
2023-01-30T07:19:15.482Z,89.28
2023-01-30T07:22:18.503Z,87.88
2023-01-30T07:25:22.603Z,87.80
2023-01-30T07:28:25.337Z,87.40
2023-01-30T07:31:27.801Z,88.85
2023-01-30T07:34:30.561Z,87.81
2023-01-30T07:37:33.087Z,88.11
2023-01-30T07:40:35.721Z,86.63
2023-01-30T07:43:38.511Z,87.11
2023-01-30T07:46:41.423Z,86.29
2023-01-30T07:49:44.099Z,83.72
2023-01-30T07:52:46.723Z,83.69
2023-01-30T07:55:49.317Z,79.77
2023-01-30T07:58:52.175Z,80.75
2023-01-30T08:01:57.051Z,81.21
2023-01-30T08:04:59.531Z,82.71
2023-01-30T08:08:02.134Z,80.58
2023-01-30T08:11:04.715Z,80.66
2023-01-30T08:14:07.391Z,79.80
2023-01-30T08:17:10.025Z,79.84
2023-01-30T08:20:16.957Z,78.93
2023-01-30T08:23:20.245Z,76.00
2023-01-30T08:26:22.910Z,69.39
2023-01-30T08:29:25.800Z,72.28
2023-01-30T08:32:28.497Z,74.80
2023-01-30T08:35:31.149Z,75.63
2023-01-30T08:38:34.305Z,77.31
2023-01-30T08:41:36.870Z,77.27
2023-01-30T08:44:39.432Z,77.61
2023-01-30T08:47:42.363Z,76.95
2023-01-30T08:50:44.972Z,77.23
2023-01-30T08:53:47.642Z,78.59
2023-01-30T08:56:50.248Z,79.91
2023-01-30T08:59:52.796Z,80.14
2023-01-30T09:02:56.496Z,79.03
2023-01-30T09:05:59.229Z,78.59
2023-01-30T09:09:01.695Z,79.66
2023-01-30T09:12:04.501Z,79.16
2023-01-30T09:15:07.738Z,77.73
2023-01-30T09:18:15.590Z,74.66
2023-01-30T09:21:18.128Z,72.96
2023-01-30T09:24:26.631Z,74.64
2023-01-30T09:27:29.657Z,76.79
2023-01-30T09:30:33.094Z,77.60
2023-01-30T09:33:35.625Z,77.67
2023-01-30T09:36:40.106Z,79.38
2023-01-30T09:39:42.651Z,78.81
2023-01-30T09:43:13.513Z,79.72
2023-01-30T09:46:19.205Z,79.10
2023-01-30T09:49:49.338Z,78.54
2023-01-30T09:53:14.743Z,78.43
2023-01-30T09:56:17.536Z,77.52
2023-01-30T09:59:25.803Z,77.25
2023-01-30T10:02:45.513Z,74.93
2023-01-30T10:06:02.575Z,73.63
2023-01-30T10:09:16.933Z,74.63
2023-01-30T10:12:38.257Z,74.71
2023-01-30T10:15:48.948Z,71.22
2023-01-30T10:19:10.429Z,72.83
2023-01-30T10:22:21.368Z,75.27
2023-01-30T10:25:35.615Z,76.24
2023-01-30T10:29:08.372Z,77.00
2023-01-30T10:32:18.253Z,78.03
2023-01-30T10:35:27.122Z,78.20
2023-01-30T10:38:49.499Z,77.97
2023-01-30T10:42:10.142Z,78.60
2023-01-30T10:45:20.588Z,77.96
2023-01-30T10:48:55.519Z,77.99
2023-01-30T10:52:35.273Z,78.12
2023-01-30T10:55:46.442Z,78.53
2023-01-30T10:58:56.193Z,78.18
2023-01-30T11:02:34.047Z,77.80
2023-01-30T11:05:45.582Z,77.65
2023-01-30T11:08:48.166Z,77.76
2023-01-30T11:11:55.792Z,77.18
2023-01-30T11:15:00.448Z,77.35
2023-01-30T11:18:40.393Z,78.17
2023-01-30T11:21:43.436Z,78.41
2023-01-30T11:24:46.989Z,79.33
2023-01-30T11:28:00.633Z,77.89
2023-01-30T11:31:03.451Z,78.20
2023-01-30T11:34:14.947Z,77.21
2023-01-30T11:37:32.660Z,78.82
2023-01-30T11:40:38.473Z,78.53
2023-01-30T11:43:40.915Z,77.72
2023-01-30T11:46:43.786Z,78.08
2023-01-30T11:50:07.538Z,77.79
2023-01-30T11:53:25.100Z,78.08
2023-01-30T11:57:03.334Z,79.49
2023-01-30T12:00:06.876Z,79.34
2023-01-30T12:03:16.897Z,80.23
2023-01-30T12:06:25.535Z,79.69
2023-01-30T12:09:40.717Z,79.43
2023-01-30T12:12:52.033Z,79.68
2023-01-30T12:16:32.532Z,79.79
2023-01-30T12:19:47.228Z,80.17
2023-01-30T12:23:15.635Z,80.38
2023-01-30T12:26:34.353Z,80.40
2023-01-30T12:29:50.895Z,80.92
2023-01-30T12:32:59.322Z,80.83
2023-01-30T12:36:01.823Z,80.19
2023-01-30T12:39:15.059Z,80.61
2023-01-30T12:42:43.691Z,80.29
2023-01-30T12:46:05.893Z,80.36
2023-01-30T12:49:47.256Z,80.80
2023-01-30T12:53:27.867Z,79.89
2023-01-30T12:56:57.433Z,79.87
2023-01-30T13:00:17.163Z,79.80
2023-01-30T13:03:35.431Z,79.30
2023-01-30T13:06:41.016Z,79.39
2023-01-30T13:09:52.482Z,79.85
2023-01-30T13:13:22.137Z,79.94
2023-01-30T13:16:50.612Z,79.83
2023-01-30T13:20:35.331Z,80.04
2023-01-30T13:23:45.777Z,80.55
2023-01-30T13:26:51.043Z,80.74
2023-01-30T13:29:54.231Z,80.65
2023-01-30T13:33:13.742Z,80.17
2023-01-30T13:36:20.928Z,80.02
2023-01-30T13:39:48.202Z,79.68
2023-01-30T13:42:59.812Z,80.21
2023-01-30T13:46:07.817Z,79.50
2023-01-30T13:49:21.409Z,79.96
2023-01-30T13:52:34.584Z,79.90
2023-01-30T13:55:43.280Z,80.73
2023-01-30T13:58:56.554Z,80.29
2023-01-30T14:02:09.805Z,79.98
2023-01-30T14:05:12.235Z,80.75
2023-01-30T14:08:29.144Z,80.73
2023-01-30T14:11:37.796Z,81.13
2023-01-30T14:14:41.904Z,81.57
2023-01-30T14:17:57.564Z,81.80
2023-01-30T14:21:24.883Z,81.42
2023-01-30T14:24:28.091Z,81.74
2023-01-30T14:27:33.097Z,82.13
2023-01-30T14:30:44.669Z,81.25
2023-01-30T14:33:51.675Z,81.89
2023-01-30T14:36:54.255Z,81.84
2023-01-30T14:39:57.936Z,81.97
2023-01-30T14:43:12.289Z,82.04
2023-01-30T14:46:17.722Z,81.97
2023-01-30T14:49:29.484Z,81.84
2023-01-30T14:52:40.071Z,81.87
2023-01-30T14:55:42.855Z,82.18
2023-01-30T14:59:00.408Z,82.59
2023-01-30T15:02:15.820Z,82.36
2023-01-30T15:05:25.050Z,83.38
2023-01-30T15:08:27.749Z,83.90
2023-01-30T15:11:34.221Z,84.49
2023-01-30T15:15:05.935Z,84.44
2023-01-30T15:18:26.995Z,83.59
2023-01-30T15:21:55.433Z,84.03
2023-01-30T15:25:12.950Z,84.22
2023-01-30T15:28:25.635Z,84.20
2023-01-30T15:31:28.171Z,83.78
2023-01-30T15:34:34.386Z,83.83
2023-01-30T15:37:47.961Z,84.04
2023-01-30T15:40:54.666Z,84.18
2023-01-30T15:44:25.318Z,83.35
2023-01-30T15:47:52.480Z,83.50
2023-01-30T15:50:58.776Z,83.28
2023-01-30T15:54:09.000Z,83.14
2023-01-30T15:57:17.861Z,82.97
2023-01-30T16:00:31.813Z,83.09
2023-01-30T16:03:40.747Z,82.68
2023-01-30T16:06:43.468Z,83.09
2023-01-30T16:10:19.191Z,83.22
2023-01-30T16:13:24.004Z,83.26
2023-01-30T16:16:27.881Z,83.34
2023-01-30T16:19:33.198Z,83.53
2023-01-30T16:22:36.456Z,83.78
2023-01-30T16:25:39.042Z,83.79
2023-01-30T16:28:41.695Z,83.72
2023-01-30T16:31:47.608Z,83.76
2023-01-30T16:34:50.480Z,84.21
2023-01-30T16:37:54.778Z,84.21
2023-01-30T16:40:59.471Z,84.14
2023-01-30T16:44:22.044Z,84.32
2023-01-30T16:47:25.858Z,84.37
2023-01-30T16:50:28.657Z,84.84
2023-01-30T16:53:32.631Z,85.20
2023-01-30T16:56:35.886Z,85.23
2023-01-30T16:59:39.434Z,85.39
2023-01-30T17:02:43.326Z,85.93
2023-01-30T17:05:48.765Z,85.35
2023-01-30T17:08:55.436Z,85.96
2023-01-30T17:11:58.075Z,86.30
2023-01-30T17:15:09.769Z,86.05
2023-01-30T17:18:13.126Z,86.08
2023-01-30T17:21:15.975Z,86.33
2023-01-30T17:24:20.633Z,86.37
2023-01-30T17:27:23.431Z,86.04
2023-01-30T17:30:26.014Z,86.25
2023-01-30T17:33:28.732Z,85.95
2023-01-30T17:36:31.553Z,86.81
2023-01-30T17:39:34.723Z,86.72
2023-01-30T17:42:37.443Z,86.36
2023-01-30T17:45:40.743Z,86.66
2023-01-30T17:48:43.742Z,86.66
2023-01-30T17:51:46.802Z,86.95
2023-01-30T17:54:49.408Z,86.86
2023-01-30T17:57:54.458Z,86.55
2023-01-30T18:00:57.407Z,86.52
2023-01-30T18:04:00.229Z,86.72
2023-01-30T18:07:06.342Z,87.16
2023-01-30T18:10:15.719Z,87.43
2023-01-30T18:13:18.732Z,87.26
2023-01-30T18:16:25.800Z,87.27
2023-01-30T18:19:31.535Z,87.08
2023-01-30T18:22:34.877Z,87.25
2023-01-30T18:25:37.872Z,88.09
2023-01-30T18:28:41.154Z,88.20
2023-01-30T18:31:45.109Z,88.68
2023-01-30T18:34:48.376Z,88.83
2023-01-30T18:37:51.223Z,89.03
2023-01-30T18:40:54.214Z,89.90
2023-01-30T18:43:59.553Z,89.47
2023-01-30T18:47:02.313Z,89.75
2023-01-30T18:50:05.793Z,89.60
2023-01-30T18:53:08.763Z,90.05
2023-01-30T18:56:13.821Z,90.15
2023-01-30T18:59:17.634Z,90.47
2023-01-30T19:02:20.404Z,90.38
2023-01-30T19:05:23.588Z,90.59
2023-01-30T19:08:30.424Z,90.30
2023-01-30T19:11:51.873Z,91.00
2023-01-30T19:14:54.765Z,90.98
2023-01-30T19:17:58.396Z,90.64
2023-01-30T19:21:01.936Z,90.45
2023-01-30T19:24:07.094Z,90.94
2023-01-30T19:27:13.957Z,91.02
2023-01-30T19:30:17.900Z,91.25
2023-01-30T19:33:23.676Z,90.66
2023-01-30T19:36:28.346Z,90.31
2023-01-30T19:39:30.953Z,90.61
2023-01-30T19:42:34.338Z,90.40
2023-01-30T19:45:41.892Z,90.66
2023-01-30T19:48:46.490Z,90.96
2023-01-30T19:51:49.512Z,90.45
2023-01-30T19:54:52.834Z,89.70
2023-01-30T19:57:55.723Z,89.68
2023-01-30T20:01:09.754Z,89.45
2023-01-30T20:04:12.367Z,89.85
2023-01-30T20:07:15.445Z,90.22
2023-01-30T20:10:18.540Z,91.08
2023-01-30T20:13:21.588Z,90.52
2023-01-30T20:16:27.582Z,91.22
2023-01-30T20:19:30.575Z,91.91
2023-01-30T20:22:33.491Z,92.25
2023-01-30T20:25:36.643Z,92.23
2023-01-30T20:28:39.742Z,92.32
2023-01-30T20:31:43.298Z,92.73
2023-01-30T20:34:46.091Z,92.74
2023-01-30T20:37:48.952Z,93.33
2023-01-30T20:40:51.457Z,93.31
2023-01-30T20:43:59.571Z,93.00
2023-01-30T20:47:02.726Z,93.14
2023-01-30T20:50:06.247Z,93.21
2023-01-30T20:53:09.731Z,93.15
2023-01-30T20:56:12.707Z,93.45
2023-01-30T20:59:17.773Z,94.08
2023-01-30T21:02:20.926Z,93.96
2023-01-30T21:05:24.132Z,92.95
2023-01-30T21:08:27.535Z,92.64
2023-01-30T21:11:30.402Z,93.63
2023-01-30T21:14:33.311Z,93.90
2023-01-30T21:17:35.863Z,93.47
2023-01-30T21:20:39.083Z,93.94
2023-01-30T21:23:42.944Z,93.54
2023-01-30T21:26:47.066Z,92.92
2023-01-30T21:29:49.941Z,92.94
2023-01-30T21:32:52.824Z,93.60
2023-01-30T21:35:58.125Z,93.54
2023-01-30T21:39:20.094Z,93.28
2023-01-30T21:42:41.313Z,93.48
2023-01-30T21:45:44.134Z,94.11
2023-01-30T21:48:46.972Z,94.34
2023-01-30T21:51:49.966Z,94.34
2023-01-30T21:54:52.610Z,93.97
2023-01-30T21:57:55.583Z,94.39
2023-01-30T22:01:05.870Z,94.12
2023-01-30T22:04:11.657Z,95.16
2023-01-30T22:07:14.163Z,95.57
2023-01-30T22:10:17.185Z,95.01
2023-01-30T22:13:19.547Z,94.47
2023-01-30T22:16:27.442Z,95.03
2023-01-30T22:19:35.314Z,95.34
2023-01-30T22:22:38.687Z,95.44
2023-01-30T22:25:41.317Z,95.69
2023-01-30T22:28:44.423Z,95.82
2023-01-30T22:31:47.545Z,95.73
2023-01-30T22:34:51.118Z,96.25
2023-01-30T22:37:53.503Z,97.03
2023-01-30T22:41:09.121Z,97.86
2023-01-30T22:44:11.583Z,96.80
2023-01-30T22:47:14.445Z,96.73
2023-01-30T22:50:17.248Z,96.88
2023-01-30T22:53:19.913Z,96.47
2023-01-30T22:56:28.008Z,96.38
2023-01-30T22:59:30.745Z,96.39
2023-01-30T23:02:33.476Z,96.20
2023-01-30T23:05:36.226Z,96.18
2023-01-30T23:08:40.932Z,96.55
2023-01-30T23:12:09.171Z,95.01
2023-01-30T23:15:11.592Z,95.62
2023-01-30T23:18:33.890Z,95.66
2023-01-30T23:21:46.036Z,96.30
2023-01-30T23:24:48.951Z,96.22
2023-01-30T23:27:51.596Z,96.12
2023-01-30T23:30:54.323Z,96.54
2023-01-30T23:33:59.591Z,95.78
2023-01-30T23:37:02.276Z,94.83
2023-01-30T23:40:05.343Z,95.17
2023-01-30T23:43:08.709Z,96.06
2023-01-30T23:46:19.169Z,96.55
2023-01-30T23:49:22.625Z,96.85
2023-01-30T23:52:25.268Z,96.90
2023-01-30T23:55:27.990Z,96.96
2023-01-30T23:58:30.613Z,97.23
